Time;durP1;ratioP1;P1;durP2;ratioP2;P2;SDS_P1;SDS_P2;PMS_P1;PMS_P2;Temp;Humidity;BMP_temperature;BMP_pressure;BME280_temperature;BME280_humidity;BME280_pressure;Samples;Min_cycle;Max_cycle;Signal;HPM_P1;HPM_P2
2022/07/18 00:01:57;;;;;;;2.60;2.20;;;;;;;;;;10382579;28;20368;-86
2022/07/18 00:06:57;;;;;;;2.72;1.77;;;;;;;;;;10386629;28;20312;-81
2022/07/18 00:11:59;;;;;;;4.20;2.00;;;;;;;;;;10366618;28;20049;-81
2022/07/18 00:17:00;;;;;;;4.13;2.25;;;;;;;;;;10396073;28;20436;-80
2022/07/18 00:22:01;;;;;;;2.65;2.05;;;;;;;;;;10388163;28;20068;-83
2022/07/18 00:27:02;;;;;;;4.55;2.10;;;;;;;;;;10406916;28;20034;-82
2022/07/18 00:32:04;;;;;;;3.42;2.00;;;;;;;;;;10421482;28;20079;-80
2022/07/18 00:37:04;;;;;;;3.33;2.13;;;;;;;;;;10380367;28;20046;-79
2022/07/18 00:42:05;;;;;;;2.13;1.92;;;;;;;;;;10357764;28;20060;-79
2022/07/18 00:47:05;;;;;;;2.87;1.70;;;;;;;;;;10355026;28;20050;-79
2022/07/18 00:52:06;;;;;;;5.30;2.88;;;;;;;;;;10356076;28;20347;-79
2022/07/18 00:57:06;;;;;;;4.10;2.40;;;;;;;;;;10351028;28;20046;-79
2022/07/18 01:02:07;;;;;;;4.05;2.15;;;;;;;;;;10341820;28;20054;-77
2022/07/18 01:07:07;;;;;;;2.30;1.83;;;;;;;;;;10324567;28;20129;-76
2022/07/18 01:12:08;;;;;;;2.42;1.80;;;;;;;;;;10348110;28;20296;-78
2022/07/18 01:17:13;;;;;;;3.20;1.77;;;;;;;;;;10362483;28;20053;-77
2022/07/18 01:22:14;;;;;;;2.67;2.45;;;;;;;;;;10359454;28;20145;-79
2022/07/18 01:27:16;;;;;;;2.25;2.05;;;;;;;;;;10368795;28;20165;-81
2022/07/18 01:32:16;;;;;;;3.38;2.05;;;;;;;;;;10338477;28;20126;-79
2022/07/18 01:37:17;;;;;;;2.22;2.00;;;;;;;;;;10345694;28;20050;-78
2022/07/18 01:42:17;;;;;;;2.67;1.65;;;;;;;;;;10351060;28;20062;-79
2022/07/18 01:47:18;;;;;;;3.78;1.88;;;;;;;;;;10341288;28;20050;-78
2022/07/18 01:52:19;;;;;;;2.42;1.80;;;;;;;;;;10339039;28;20054;-81
2022/07/18 01:57:20;;;;;;;3.65;1.92;;;;;;;;;;10340245;28;20046;-79
2022/07/18 02:02:20;;;;;;;3.10;1.85;;;;;;;;;;10343575;28;20079;-80
2022/07/18 02:07:21;;;;;;;2.75;1.63;;;;;;;;;;10338975;28;20133;-78
2022/07/18 02:12:22;;;;;;;2.35;2.00;;;;;;;;;;10367678;28;20106;-76
2022/07/18 02:17:22;;;;;;;2.30;2.00;;;;;;;;;;10371017;28;20046;-82
2022/07/18 02:22:23;;;;;;;2.72;2.10;;;;;;;;;;10344270;28;21164;-78
2022/07/18 02:27:24;;;;;;;2.03;1.83;;;;;;;;;;10328810;28;20045;-80
2022/07/18 02:32:25;;;;;;;2.00;1.60;;;;;;;;;;10358726;28;20240;-79
2022/07/18 02:37:25;;;;;;;3.65;2.08;;;;;;;;;;10354722;28;20132;-80
2022/07/18 02:42:25;;;;;;;2.33;1.67;;;;;;;;;;10329771;28;20564;-80
2022/07/18 02:47:26;;;;;;;2.20;1.70;;;;;;;;;;10346662;28;20137;-80
2022/07/18 02:52:26;;;;;;;2.23;1.90;;;;;;;;;;10349260;28;20281;-79
2022/07/18 02:57:27;;;;;;;3.00;2.00;;;;;;;;;;10348750;28;20362;-80
2022/07/18 03:02:27;;;;;;;1.90;1.67;;;;;;;;;;10348766;28;20098;-79
2022/07/18 03:07:28;;;;;;;2.47;2.00;;;;;;;;;;10347193;28;20081;-78
2022/07/18 03:12:29;;;;;;;2.20;1.50;;;;;;;;;;10366259;28;20288;-82
2022/07/18 03:17:30;;;;;;;2.30;1.77;;;;;;;;;;10356344;28;20568;-83
2022/07/18 03:22:33;;;;;;;1.70;1.60;;;;;;;;;;10363415;28;20091;-82
2022/07/18 03:27:33;;;;;;;2.88;2.25;;;;;;;;;;10393496;28;20042;-80
2022/07/18 03:32:34;;;;;;;6.55;2.20;;;;;;;;;;10355385;28;20105;-78
2022/07/18 03:37:34;;;;;;;2.33;2.00;;;;;;;;;;10345978;28;20282;-78
2022/07/18 03:42:38;;;;;;;3.20;2.13;;;;;;;;;;10353129;28;20065;-79
2022/07/18 03:47:38;;;;;;;4.57;2.30;;;;;;;;;;10355695;28;20101;-79
2022/07/18 03:52:39;;;;;;;3.40;2.40;;;;;;;;;;10355782;28;20072;-78
2022/07/18 03:57:39;;;;;;;2.27;2.03;;;;;;;;;;10365000;28;20280;-77
2022/07/18 04:02:45;;;;;;;3.85;2.28;;;;;;;;;;10360750;28;20840;-78
2022/07/18 04:07:45;;;;;;;2.95;2.10;;;;;;;;;;10338064;28;20073;-77
2022/07/18 04:12:46;;;;;;;5.68;2.10;;;;;;;;;;10357774;28;20156;-79
2022/07/18 04:17:47;;;;;;;6.00;2.53;;;;;;;;;;10348195;28;20043;-78
2022/07/18 04:22:50;;;;;;;3.25;2.10;;;;;;;;;;10337486;28;20043;-80
2022/07/18 04:27:52;;;;;;;2.85;2.03;;;;;;;;;;10334005;28;20038;-79
2022/07/18 04:32:53;;;;;;;3.47;2.20;;;;;;;;;;10351489;28;20450;-80
2022/07/18 04:37:53;;;;;;;3.63;2.20;;;;;;;;;;10364491;28;20065;-81
2022/07/18 04:42:54;;;;;;;3.38;2.28;;;;;;;;;;10380255;28;20054;-87
2022/07/18 04:47:55;;;;;;;3.45;2.25;;;;;;;;;;10395519;28;20038;-80
2022/07/18 04:52:57;;;;;;;4.32;2.28;;;;;;;;;;10379695;28;20239;-77
2022/07/18 04:57:59;;;;;;;3.22;2.47;;;;;;;;;;10353761;28;20061;-77
2022/07/18 05:03:00;;;;;;;4.45;2.13;;;;;;;;;;10342838;28;20049;-75
2022/07/18 05:08:01;;;;;;;4.05;2.40;;;;;;;;;;10341752;28;20046;-76
2022/07/18 05:13:01;;;;;;;3.37;2.33;;;;;;;;;;10343759;28;20052;-77
2022/07/18 05:18:02;;;;;;;2.53;2.30;;;;;;;;;;10332114;28;20329;-76
2022/07/18 05:23:02;;;;;;;3.17;2.10;;;;;;;;;;10344895;28;20285;-75
2022/07/18 05:28:03;;;;;;;2.60;2.10;;;;;;;;;;10350418;28;20574;-76
2022/07/18 05:33:03;;;;;;;3.80;2.28;;;;;;;;;;10345076;28;20053;-77
2022/07/18 05:38:04;;;;;;;6.97;2.40;;;;;;;;;;10350571;28;20069;-76
2022/07/18 05:43:04;;;;;;;3.30;2.10;;;;;;;;;;10345346;28;20062;-75
2022/07/18 05:48:05;;;;;;;2.60;2.30;;;;;;;;;;10349765;28;20050;-77
2022/07/18 05:53:05;;;;;;;4.35;2.35;;;;;;;;;;10344757;28;20046;-78
2022/07/18 05:58:07;;;;;;;2.70;2.08;;;;;;;;;;10338147;28;20042;-78
2022/07/18 06:03:10;;;;;;;4.78;2.25;;;;;;;;;;10345092;28;20053;-77
2022/07/18 06:08:11;;;;;;;4.43;2.10;;;;;;;;;;10339617;28;20069;-77
2022/07/18 06:13:11;;;;;;;4.95;1.88;;;;;;;;;;10342251;28;20046;-78
2022/07/18 06:18:11;;;;;;;3.60;2.00;;;;;;;;;;10341513;28;20042;-78
2022/07/18 06:23:12;;;;;;;7.47;2.20;;;;;;;;;;10344391;28;20295;-77
2022/07/18 06:28:12;;;;;;;2.30;1.60;;;;;;;;;;10342685;28;20085;-78
2022/07/18 06:33:13;;;;;;;2.20;1.73;;;;;;;;;;10346074;28;20054;-77
2022/07/18 06:38:14;;;;;;;1.80;1.60;;;;;;;;;;10349610;28;20051;-78
2022/07/18 06:43:19;;;;;;;2.10;1.70;;;;;;;;;;10340076;28;20085;-77
2022/07/18 06:48:19;;;;;;;2.28;1.80;;;;;;;;;;10349536;28;20110;-77
2022/07/18 06:53:19;;;;;;;2.40;1.70;;;;;;;;;;10332724;28;20077;-77
2022/07/18 06:58:20;;;;;;;3.60;1.90;;;;;;;;;;10335246;28;20054;-79
2022/07/18 07:03:20;;;;;;;1.97;1.77;;;;;;;;;;10343735;28;20647;-80
2022/07/18 07:08:20;;;;;;;2.63;1.83;;;;;;;;;;10335619;28;20749;-77
2022/07/18 07:13:21;;;;;;;3.42;1.95;;;;;;;;;;10332779;28;20517;-77
2022/07/18 07:18:21;;;;;;;1.73;1.60;;;;;;;;;;10321162;28;20581;-77
2022/07/18 07:23:22;;;;;;;3.17;1.90;;;;;;;;;;10339068;28;20282;-77
2022/07/18 07:28:22;;;;;;;6.20;1.70;;;;;;;;;;10329437;28;20046;-77
2022/07/18 07:33:22;;;;;;;3.15;1.80;;;;;;;;;;10339129;28;20864;-78
2022/07/18 07:38:27;;;;;;;4.18;3.05;;;;;;;;;;10337330;28;20438;-78
2022/07/18 07:43:28;;;;;;;3.05;1.65;;;;;;;;;;10344388;28;20404;-77
2022/07/18 07:48:28;;;;;;;3.05;1.95;;;;;;;;;;10337717;28;20120;-77
2022/07/18 07:53:28;;;;;;;1.80;1.60;;;;;;;;;;10341109;28;20046;-78
2022/07/18 07:58:29;;;;;;;3.42;1.83;;;;;;;;;;10346310;28;20042;-78
2022/07/18 08:03:30;;;;;;;2.20;1.80;;;;;;;;;;10344871;28;20104;-76
2022/07/18 08:08:31;;;;;;;4.50;2.20;;;;;;;;;;10358553;28;20286;-77
2022/07/18 08:13:32;;;;;;;3.60;1.97;;;;;;;;;;10349480;28;20042;-77
2022/07/18 08:18:32;;;;;;;2.30;1.85;;;;;;;;;;10336190;28;20357;-77
2022/07/18 08:23:32;;;;;;;5.67;2.60;;;;;;;;;;10346976;28;20714;-78
2022/07/18 08:28:33;;;;;;;3.13;1.67;;;;;;;;;;10347831;28;20288;-77
2022/07/18 08:33:33;;;;;;;4.87;1.90;;;;;;;;;;10351080;28;20276;-77
2022/07/18 08:38:33;;;;;;;4.45;2.20;;;;;;;;;;10334539;28;20177;-76
2022/07/18 08:43:34;;;;;;;2.10;1.90;;;;;;;;;;10352135;28;20704;-76
2022/07/18 08:48:34;;;;;;;4.28;2.92;;;;;;;;;;10339981;28;20361;-79
2022/07/18 08:53:37;;;;;;;2.83;1.90;;;;;;;;;;10368603;28;20058;-77
2022/07/18 08:58:37;;;;;;;4.40;1.88;;;;;;;;;;10356549;28;20056;-77
2022/07/18 09:03:38;;;;;;;3.45;1.85;;;;;;;;;;10347060;28;20050;-77
2022/07/18 09:08:39;;;;;;;4.85;1.88;;;;;;;;;;10345400;28;20057;-78
2022/07/18 09:13:42;;;;;;;6.53;4.40;;;;;;;;;;10343777;28;20061;-77
2022/07/18 09:18:42;;;;;;;;;;;;;;;;;;10331984;28;20054;-77
2022/07/18 09:23:43;;;;;;;3.17;1.60;;;;;;;;;;10345414;28;20317;-77
2022/07/18 09:28:50;;;;;;;2.30;1.50;;;;;;;;;;10353205;28;20046;-80
2022/07/18 09:33:55;;;;;;;2.00;1.23;;;;;;;;;;10338111;28;20064;-78
2022/07/18 09:38:55;;;;;;;2.22;1.48;;;;;;;;;;10333065;28;20046;-80
2022/07/18 09:43:56;;;;;;;14.15;12.43;;;;;;;;;;10352579;28;20053;-82
2022/07/18 09:49:09;;;;;;;3.17;2.03;;;;;;;;;;10355227;28;20046;-79
2022/07/18 09:54:09;;;;;;;2.42;1.25;;;;;;;;;;10349468;28;20046;-79
2022/07/18 09:59:10;;;;;;;3.30;2.53;;;;;;;;;;10340024;28;20050;-78
2022/07/18 10:04:10;;;;;;;2.53;1.70;;;;;;;;;;10344024;28;20062;-78
2022/07/18 10:09:11;;;;;;;2.23;1.73;;;;;;;;;;10338614;28;20047;-79
2022/07/18 10:14:11;;;;;;;2.30;1.40;;;;;;;;;;10340966;28;20081;-81
2022/07/18 10:19:13;;;;;;;5.03;1.45;;;;;;;;;;10367304;28;20078;-80
2022/07/18 10:24:28;;;;;;;4.93;1.63;;;;;;;;;;10355601;28;20121;-81
2022/07/18 10:29:29;;;;;;;1.48;1.17;;;;;;;;;;10366349;28;20079;-81
2022/07/18 10:34:34;;;;;;;4.30;1.83;;;;;;;;;;10377184;28;20046;-81
2022/07/18 10:39:37;;;;;;;2.92;1.63;;;;;;;;;;10383909;28;20113;-81
2022/07/18 10:44:40;;;;;;;5.55;1.95;;;;;;;;;;10384528;28;20061;-82
2022/07/18 10:50:01;;;;;;;4.22;2.72;;;;;;;;;;10400932;28;20050;-79
2022/07/18 10:55:16;;;;;;;1.73;1.40;;;;;;;;;;10414564;28;20101;-79
2022/07/18 11:00:24;;;;;;;3.15;1.10;;;;;;;;;;10361048;28;20077;-84
2022/07/18 11:05:27;;;;;;;1.60;1.00;;;;;;;;;;10373665;28;20057;-85
2022/07/18 11:11:01;;;;;;;2.10;1.02;;;;;;;;;;10385068;28;20035;-82
2022/07/18 11:16:12;;;;;;;5.57;3.97;;;;;;;;;;10393474;28;20049;-83
2022/07/18 11:21:20;;;;;;;2.63;1.23;;;;;;;;;;10378301;28;20056;-81
2022/07/18 11:26:23;;;;;;;2.42;1.20;;;;;;;;;;10377877;28;20089;-82
2022/07/18 11:31:42;;;;;;;1.42;1.10;;;;;;;;;;10354919;28;20046;-82
2022/07/18 11:36:43;;;;;;;1.58;1.23;;;;;;;;;;10380173;28;20045;-80
2022/07/18 11:41:44;;;;;;;1.77;1.30;;;;;;;;;;10390231;28;20069;-82
2022/07/18 11:46:45;;;;;;;;;;;;;;;;;;10356986;28;20030;-82
2022/07/18 11:51:47;;;;;;;1.45;1.20;;;;;;;;;;10353932;28;19917;-81
2022/07/18 11:56:54;;;;;;;2.83;1.30;;;;;;;;;;10385381;28;20050;-84
2022/07/18 12:01:55;;;;;;;1.80;1.10;;;;;;;;;;10386899;28;20050;-83
2022/07/18 12:07:15;;;;;;;2.03;1.00;;;;;;;;;;10381961;28;20042;-84
2022/07/18 12:12:20;;;;;;;1.25;0.93;;;;;;;;;;10387543;28;20034;-82
2022/07/18 12:17:24;;;;;;;1.38;0.80;;;;;;;;;;10361340;28;20037;-81
2022/07/18 12:22:58;;;;;;;1.15;0.90;;;;;;;;;;10369286;28;20363;-79
2022/07/18 12:28:12;;;;;;;0.90;0.80;;;;;;;;;;10345678;28;20532;-81
2022/07/18 12:33:14;;;;;;;1.50;0.82;;;;;;;;;;10336788;28;20470;-80
2022/07/18 12:38:20;;;;;;;2.75;1.10;;;;;;;;;;10370471;28;20102;-80
2022/07/18 12:43:27;;;;;;;2.10;0.80;;;;;;;;;;10369600;28;20054;-80
2022/07/18 12:48:31;;;;;;;1.08;0.90;;;;;;;;;;10355453;28;20045;-83
2022/07/18 12:53:34;;;;;;;2.00;1.00;;;;;;;;;;10382614;28;20455;-82
2022/07/18 12:58:39;;;;;;;2.10;1.67;;;;;;;;;;10376778;28;20030;-84
2022/07/18 13:03:48;;;;;;;2.67;1.00;;;;;;;;;;10412899;28;20041;-83
2022/07/18 13:08:49;;;;;;;2.45;1.48;;;;;;;;;;10386235;28;20034;-81
2022/07/18 13:13:50;;;;;;;1.67;1.10;;;;;;;;;;10386395;28;20050;-81
2022/07/18 13:18:51;;;;;;;3.03;1.15;;;;;;;;;;10413642;28;20269;-83
2022/07/18 13:23:52;;;;;;;1.73;1.02;;;;;;;;;;10379752;28;20045;-83
2022/07/18 13:28:55;;;;;;;2.75;1.15;;;;;;;;;;10380020;28;20041;-82
2022/07/18 13:34:01;;;;;;;3.00;1.23;;;;;;;;;;10361431;28;20077;-80
2022/07/18 13:39:01;;;;;;;2.17;1.10;;;;;;;;;;10342551;28;20043;-81
2022/07/18 13:44:04;;;;;;;2.10;1.10;;;;;;;;;;10320919;28;20278;-80
2022/07/18 13:49:04;;;;;;;2.28;1.08;;;;;;;;;;10348716;28;20765;-79
2022/07/18 13:54:06;;;;;;;1.20;1.00;;;;;;;;;;10348917;28;20192;-80
2022/07/18 13:59:08;;;;;;;2.95;1.15;;;;;;;;;;10365259;28;20089;-81
2022/07/18 14:04:10;;;;;;;2.50;1.35;;;;;;;;;;10350800;28;20105;-81
2022/07/18 14:09:10;;;;;;;;;;;;;;;;;;10368399;28;20053;-82
2022/07/18 14:14:11;;;;;;;1.58;1.08;;;;;;;;;;10379282;28;20564;-80
2022/07/18 14:19:12;;;;;;;;;;;;;;;;;;10352318;28;20041;-80
2022/07/18 14:24:13;;;;;;;2.80;1.10;;;;;;;;;;10364315;28;19987;-79
2022/07/18 14:29:19;;;;;;;;;;;;;;;;;;10368459;28;20516;-80
2022/07/18 14:34:20;;;;;;;1.60;1.08;;;;;;;;;;10364961;28;20404;-81
2022/07/18 14:39:21;;;;;;;;;;;;;;;;;;10350777;28;20061;-81
2022/07/18 14:44:21;;;;;;;3.10;1.20;;;;;;;;;;10362615;28;20389;-81
2022/07/18 14:49:23;;;;;;;1.63;1.10;;;;;;;;;;10353900;28;20116;-83
2022/07/18 14:54:25;;;;;;;1.55;1.02;;;;;;;;;;10360526;28;20074;-82
2022/07/18 14:59:25;;;;;;;;;;;;;;;;;;10369812;28;20597;-81
2022/07/18 15:04:31;;;;;;;1.27;1.02;;;;;;;;;;10373190;28;19917;-82
2022/07/18 15:09:33;;;;;;;2.67;1.30;;;;;;;;;;10371113;28;20058;-83
2022/07/18 15:15:10;;;;;;;1.40;1.05;;;;;;;;;;10326274;28;20058;-84
2022/07/18 15:20:16;;;;;;;1.95;1.00;;;;;;;;;;10343441;28;20049;-80
2022/07/18 15:25:18;;;;;;;1.95;1.13;;;;;;;;;;10382125;28;20429;-82
2022/07/18 15:30:24;;;;;;;1.73;1.25;;;;;;;;;;10367599;28;20109;-83
2022/07/18 15:35:26;;;;;;;1.35;1.20;;;;;;;;;;10372440;28;20137;-81
2022/07/18 15:40:36;;;;;;;3.00;1.23;;;;;;;;;;10343993;28;20701;-84
2022/07/18 15:45:40;;;;;;;2.03;1.00;;;;;;;;;;10342367;28;20042;-81
2022/07/18 15:50:42;;;;;;;4.78;2.00;;;;;;;;;;10346111;28;20121;-83
2022/07/18 15:55:44;;;;;;;3.03;1.80;;;;;;;;;;10360089;28;20061;-84
2022/07/18 16:00:48;;;;;;;2.17;1.13;;;;;;;;;;10365399;28;20057;-83
2022/07/18 16:06:06;;;;;;;1.77;1.00;;;;;;;;;;10330515;28;20044;-85
2022/07/18 16:11:07;;;;;;;1.77;1.13;;;;;;;;;;10361266;28;20060;-83
2022/07/18 16:16:18;;;;;;;1.52;1.27;;;;;;;;;;10359538;28;20096;-84
2022/07/18 16:21:57;;;;;;;2.70;1.25;;;;;;;;;;10370256;28;20073;-83
2022/07/18 16:26:58;;;;;;;4.65;1.70;;;;;;;;;;10382831;28;20528;-81
2022/07/18 16:32:03;;;;;;;19.42;9.18;;;;;;;;;;10363137;28;20042;-83
2022/07/18 16:37:04;;;;;;;16.35;8.63;;;;;;;;;;10369640;28;20054;-81
2022/07/18 16:42:05;;;;;;;;;;;;;;;;;;10377375;28;20043;-82
2022/07/18 16:47:41;;;;;;;5.03;2.85;;;;;;;;;;10358332;28;19971;-83
2022/07/18 16:52:58;;;;;;;7.07;4.22;;;;;;;;;;10372613;28;20065;-85
2022/07/18 16:58:10;;;;;;;2.60;1.63;;;;;;;;;;10377563;28;20038;-82
2022/07/18 17:03:38;;;;;;;6.57;3.00;;;;;;;;;;10411322;28;20042;-82
2022/07/18 17:08:40;;;;;;;2.20;1.90;;;;;;;;;;10398653;28;20046;-84
2022/07/18 17:13:41;;;;;;;3.25;2.00;;;;;;;;;;10369588;28;20065;-82
2022/07/18 17:18:44;;;;;;;15.02;13.48;;;;;;;;;;10381753;28;20042;-81
2022/07/18 17:23:48;;;;;;;1.85;1.60;;;;;;;;;;10380319;28;20050;-84
2022/07/18 17:28:56;;;;;;;2.53;1.73;;;;;;;;;;10380035;28;20104;-84
2022/07/18 17:52:09;;;;;;;2.63;1.30;;;;;;;;;;10509517;28;20044;-86
2022/07/18 17:57:57;;;;;;;2.95;1.27;;;;;;;;;;10481359;28;20686;-84
2022/07/18 18:03:31;;;;;;;1.45;1.35;;;;;;;;;;10432519;28;20190;-84
2022/07/18 18:14:20;;;;;;;2.35;1.33;;;;;;;;;;10487458;23;20069;-84
2022/07/18 18:20:17;;;;;;;1.70;1.25;;;;;;;;;;10325615;28;20029;-85
2022/07/18 18:26:00;;;;;;;2.00;1.73;;;;;;;;;;10382452;28;20041;-86
2022/07/18 18:31:11;;;;;;;2.40;1.17;;;;;;;;;;10370134;28;20038;-84
2022/07/18 18:36:11;;;;;;;1.63;1.35;;;;;;;;;;10380182;28;20100;-83
2022/07/18 18:41:12;;;;;;;1.70;1.30;;;;;;;;;;10395735;28;20076;-80
2022/07/18 18:46:14;;;;;;;2.83;1.40;;;;;;;;;;10386784;28;20037;-82
2022/07/18 18:51:15;;;;;;;2.22;1.42;;;;;;;;;;10413840;28;20041;-78
2022/07/18 19:02:53;;;;;;;6.30;2.40;;;;;;;;;;10368482;28;20042;-82
2022/07/18 19:07:53;;;;;;;3.60;1.95;;;;;;;;;;10330800;28;20049;-84
2022/07/18 19:12:55;;;;;;;;;;;;;;;;;;10445438;28;20650;-83
2022/07/18 19:17:57;;;;;;;2.77;2.00;;;;;;;;;;10451674;28;19984;-83
2022/07/18 19:22:58;;;;;;;3.23;1.60;;;;;;;;;;10443848;28;20044;-84
2022/07/18 19:28:02;;;;;;;2.03;1.50;;;;;;;;;;10461152;28;20274;-83
2022/07/18 19:38:25;;;;;;;2.73;1.53;;;;;;;;;;10418120;28;20099;-83
2022/07/18 19:43:26;;;;;;;2.03;1.75;;;;;;;;;;10428348;28;20039;-81
2022/07/18 19:48:29;;;;;;;3.75;2.85;;;;;;;;;;10423307;28;20040;-84
2022/07/18 19:53:32;;;;;;;4.03;2.50;;;;;;;;;;10440295;28;20056;-83
2022/07/18 19:58:40;;;;;;;2.67;2.47;;;;;;;;;;10412127;28;20041;-84
2022/07/18 20:03:53;;;;;;;30.88;25.50;;;;;;;;;;10448243;28;20056;-81
2022/07/18 20:08:53;;;;;;;14.50;12.73;;;;;;;;;;10438459;28;20470;-83
2022/07/18 20:13:55;;;;;;;6.43;5.83;;;;;;;;;;10413512;28;20053;-82
2022/07/18 20:18:57;;;;;;;4.63;2.97;;;;;;;;;;10402884;28;20591;-82
2022/07/18 20:23:58;;;;;;;2.88;2.53;;;;;;;;;;10438262;28;20116;-80
2022/07/18 20:29:04;;;;;;;3.15;2.33;;;;;;;;;;10423968;28;20072;-81
2022/07/18 20:34:05;;;;;;;2.90;2.60;;;;;;;;;;10454596;28;20122;-82
2022/07/18 20:39:13;;;;;;;3.13;2.70;;;;;;;;;;10449111;28;20057;-82
2022/07/18 20:44:15;;;;;;;4.28;2.83;;;;;;;;;;10443106;28;20080;-81
2022/07/18 20:49:17;;;;;;;4.20;3.77;;;;;;;;;;10449858;28;20021;-83
2022/07/18 20:54:17;;;;;;;5.03;3.70;;;;;;;;;;10418744;28;20299;-82
2022/07/18 20:59:18;;;;;;;4.90;3.40;;;;;;;;;;10391863;28;20084;-82
2022/07/18 21:04:21;;;;;;;5.15;3.92;;;;;;;;;;10424696;28;20088;-84
2022/07/18 21:09:23;;;;;;;6.18;3.92;;;;;;;;;;10440450;28;20237;-86
2022/07/18 21:19:48;;;;;;;5.20;3.85;;;;;;;;;;10468228;28;20047;-83
2022/07/18 21:24:51;;;;;;;4.75;3.28;;;;;;;;;;10424805;28;20049;-82
2022/07/18 21:29:52;;;;;;;4.67;3.47;;;;;;;;;;10430644;28;20057;-83
2022/07/18 21:34:52;;;;;;;5.30;4.13;;;;;;;;;;10417691;28;20284;-84
2022/07/18 21:39:54;;;;;;;5.60;3.50;;;;;;;;;;10436915;28;20076;-86
2022/07/18 21:44:57;;;;;;;4.88;3.70;;;;;;;;;;10481390;28;20093;-86
2022/07/18 21:49:58;;;;;;;3.78;3.40;;;;;;;;;;10460538;28;20053;-80
2022/07/18 21:55:00;;;;;;;5.13;4.10;;;;;;;;;;10442263;28;20135;-82
2022/07/18 22:00:00;;;;;;;5.57;4.10;;;;;;;;;;10405338;28;20052;-82
2022/07/18 22:05:01;;;;;;;5.60;3.80;;;;;;;;;;10417693;28;20189;-80
2022/07/18 22:10:02;;;;;;;6.60;3.72;;;;;;;;;;10422734;28;20929;-80
2022/07/18 22:15:03;;;;;;;4.25;3.60;;;;;;;;;;10432529;28;20090;-80
2022/07/18 22:20:04;;;;;;;5.13;3.42;;;;;;;;;;10425938;28;20599;-80
2022/07/18 22:25:06;;;;;;;6.47;3.00;;;;;;;;;;10443200;28;20069;-80
2022/07/18 22:30:08;;;;;;;5.07;3.28;;;;;;;;;;10440262;28;20045;-82
2022/07/18 22:35:09;;;;;;;5.35;3.20;;;;;;;;;;10442183;28;20164;-80
2022/07/18 22:40:12;;;;;;;5.55;3.10;;;;;;;;;;10434526;28;20045;-80
2022/07/18 22:45:12;;;;;;;6.93;3.67;;;;;;;;;;10416146;28;20107;-81
2022/07/18 22:50:13;;;;;;;7.60;4.30;;;;;;;;;;10431779;28;20056;-82
2022/07/18 22:55:15;;;;;;;4.72;3.80;;;;;;;;;;10419520;28;20080;-81
2022/07/18 23:00:16;;;;;;;4.37;3.40;;;;;;;;;;10432590;28;20915;-80
2022/07/18 23:05:23;;;;;;;3.97;3.30;;;;;;;;;;10431765;28;20078;-81
2022/07/18 23:10:24;;;;;;;4.72;3.55;;;;;;;;;;10402105;28;20484;-80
2022/07/18 23:15:25;;;;;;;4.28;3.20;;;;;;;;;;10415468;28;20385;-81
2022/07/18 23:20:27;;;;;;;4.88;3.17;;;;;;;;;;10423379;28;20112;-80
2022/07/18 23:25:29;;;;;;;3.20;2.90;;;;;;;;;;10417071;28;20591;-80
2022/07/18 23:30:30;;;;;;;3.47;3.10;;;;;;;;;;10442316;28;20053;-80
2022/07/18 23:35:31;;;;;;;4.28;2.88;;;;;;;;;;10430118;28;20723;-81
2022/07/18 23:40:31;;;;;;;4.18;3.30;;;;;;;;;;10443809;28;20056;-81
2022/07/18 23:45:32;;;;;;;4.75;3.47;;;;;;;;;;10434813;28;20543;-81
2022/07/18 23:50:32;;;;;;;5.40;3.20;;;;;;;;;;10419459;28;20113;-79
2022/07/18 23:55:33;;;;;;;4.03;2.97;;;;;;;;;;10429876;28;20061;-81
